Flight Track Log - Related Links

Times and Time Zones

All times are in EDT time to prevent confusion due to time zone crossing. See the DAL2191 flight status page for this flight to view local times or setup timezone preferences in your user account.

Time Position Orientation Groundspeed Altitude Reporting Facility
EDT Latitude Longitude Course Direction KTS MPH feet Rate Location/Type
Thu 12:54:25 PM 33.6333 -84.3833 194° South 174 200 2,700  Level Atlanta TRACON
Thu 12:55:25 PM 33.6167 -84.3167 107° East 229 264 5,100 2,250 Climbing Atlanta TRACON
Thu 12:56:00 PM 33.3935 -84.2832 194° South  Level FlightAware Approximate
Thu 12:57:00 PM 33.2826 -84.3156 194° South  Level FlightAware Approximate
Thu 12:57:00 PM 33.4864 -84.2667 180° South  Level FlightAware Approximate
Thu 12:57:37 PM 33.4767 -84.2778 180° South 275 316 9,900  Level Atlanta Center
Thu 12:58:00 PM 33.1717 -84.3479 194° South  Level FlightAware Approximate
Thu 12:58:37 PM 33.3869 -84.2950 189° South 302 348 10,300  Level Atlanta Center
Thu 12:59:00 PM 33.0609 -84.3802 194° South  Level FlightAware Approximate
Thu 12:59:37 PM 33.2847 -84.3294 196° South 351 404 12,300  Level Atlanta Center
Thu 01:00:37 PM 33.1761 -84.3614 194° South 397 457 15,000 2,550 Climbing Atlanta Center
Thu 01:01:37 PM 33.0611 -84.3908 192° South 417 480 17,400 3,050 Climbing Atlanta Center
Thu 01:02:37 PM 32.9503 -84.4175 191° South 422 486 21,100 2,350 Climbing Atlanta Center
Thu 01:03:37 PM 32.8356 -84.4194 181° South 412 474 22,100 1,150 Climbing Atlanta Center
Thu 01:04:37 PM 32.7083 -84.4142 178° South 431 496 23,400 1,500 Climbing Atlanta Center
Thu 01:05:37 PM 32.5789 -84.4136 180° South 449 517 25,100 1,700 Climbing Atlanta Center
Thu 01:06:37 PM 32.4494 -84.4131 180° South 465 535 26,800 1,750 Climbing Atlanta Center
Thu 01:07:37 PM 32.3158 -84.4100 179° South 470 541 28,600 1,800 Climbing Atlanta Center
Thu 01:08:37 PM 32.1886 -84.4044 178° South 475 547 30,400 1,650 Climbing Atlanta Center
Thu 01:09:37 PM 32.0592 -84.4039 180° South 475 547 31,900 1,300 Climbing Atlanta Center
Thu 01:10:37 PM 31.9297 -84.4011 179° South 475 547 33,000 725 Climbing Atlanta Center
Thu 01:11:08 PM 31.8758 -84.3997 179° South 474 545 33,000  Level Jacksonville Center
Thu 01:12:08 PM 31.7464 -84.3975 179° South 474 545 33,000  Level Jacksonville Center
Thu 01:13:08 PM 31.6147 -84.3953 179° South 474 545 33,000  Level Jacksonville Center
Thu 01:14:08 PM 31.4875 -84.3933 179° South 474 545 33,000  Level Jacksonville Center
Thu 01:15:08 PM 31.3581 -84.3914 179° South 474 545 33,000  Level Jacksonville Center
Thu 01:16:08 PM 31.2306 -84.3892 179° South 469 540 33,000  Level Jacksonville Center
Thu 01:17:08 PM 31.1014 -84.3872 179° South 469 540 33,000  Level Jacksonville Center
Thu 01:18:08 PM 30.9761 -84.3828 178° South 462 532 33,000  Level Jacksonville Center
Thu 01:19:08 PM 30.8467 -84.3808 179° South 457 526 33,000  Level Jacksonville Center
Thu 01:20:08 PM 30.7214 -84.3764 178° South 457 526 33,000  Level Jacksonville Center
Thu 01:21:08 PM 30.5942 -84.3767 180° South 457 526 33,000  Level Jacksonville Center
Thu 01:22:08 PM 30.4756 -84.3219 158° South 445 512 33,000  Level Jacksonville Center
Thu 01:23:08 PM 30.3636 -84.2456 150° Southeast 456 525 33,000  Level Jacksonville Center
Thu 01:24:08 PM 30.2539 -84.1767 152° Southeast 456 525 33,000  Level Jacksonville Center
Thu 01:25:08 PM 30.1417 -84.1056 151° Southeast 456 525 33,000  Level Jacksonville Center
Thu 01:26:08 PM 30.0275 -84.0322 151° Southeast 456 525 33,000 -50 Level Jacksonville Center
Thu 01:27:08 PM 29.9133 -83.9589 151° Southeast 456 525 32,900  Descending Jacksonville Center
Thu 01:28:08 PM 29.8011 -83.8883 151° Southeast 456 525 33,000 50 Climbing Jacksonville Center
Thu 01:29:08 PM 29.6911 -83.8156 150° Southeast 456 525 33,000 -50 Level Jacksonville Center
Thu 01:30:08 PM 29.5747 -83.7428 151° Southeast 456 525 32,900  Descending Jacksonville Center
Thu 01:31:08 PM 29.4625 -83.6703 151° Southeast 456 525 33,000 -700 Climbing Jacksonville Center
Thu 01:32:08 PM 29.3503 -83.5978 151° Southeast 456 525 31,500 -2,550 Descending Jacksonville Center
Thu 01:33:08 PM 29.2378 -83.5256 151° Southeast 456 525 27,900 -2,950 Descending Jacksonville Center
Thu 01:34:08 PM 29.1275 -83.4536 150° Southeast 461 531 25,600 -2,400 Descending Jacksonville Center
Thu 01:35:08 PM 29.0172 -83.3842 151° Southeast 449 517 23,100 -1,550 Descending Jacksonville Center
Thu 01:36:08 PM 28.9025 -83.3122 151° Southeast 460 529 22,500 -1,600 Descending Jacksonville Center
Thu 01:37:08 PM 28.7922 -83.2408 150° Southeast 460 529 19,900 -2,621 Descending Jacksonville Center
Thu 01:39:18 PM 28.5667 -83.1000 151° Southeast 395 455 14,200 -2,053 Descending Tampa TRACON
Thu 01:40:18 PM 28.4833 -83.0500 152° Southeast 376 433 13,400 -600 Descending Tampa TRACON
Thu 01:41:18 PM 28.4000 -82.9833 145° Southeast 320 368 13,000 -200 Descending Tampa TRACON
Thu 01:42:18 PM 28.3167 -82.9500 161° South 311 358 13,000 -500 Level Tampa TRACON
Thu 01:43:18 PM 28.2667 -82.8833 130° Southeast 264 304 12,000 -1,500 Descending Tampa TRACON
Thu 01:44:18 PM 28.2667 -82.8000 90° East 255 293 10,000 -2,000 Descending Tampa TRACON
Thu 01:45:18 PM 28.2833 -82.7167 77° East 252 290 8,000 -1,800 Descending Tampa TRACON
Thu 01:46:18 PM 28.2667 -82.6500 106° East 242 278 6,400 -1,550 Descending Tampa TRACON
Thu 01:47:18 PM 28.2500 -82.5833 106° East 229 264 4,900 -1,600 Descending Tampa TRACON
Thu 01:48:18 PM 28.2000 -82.5500 150° Southeast 216 249 3,200 -950 Descending Tampa TRACON
Thu 01:49:18 PM 28.1333 -82.5333 168° South 187 215 3,000 -200 Descending Tampa TRACON

Login

Don't have an account? Register now (free) for customized features, flight alerts, and more!